createdAt,value
2022-08-05T00:00:19.970Z,101562.97
2022-08-05T00:02:51.809Z,101563.16
2022-08-05T00:06:01.859Z,101569.69
2022-08-05T00:08:34.773Z,101569.91
2022-08-05T00:11:00.986Z,101546.78
2022-08-05T00:13:39.064Z,101545.91
2022-08-05T00:16:08.851Z,101556.31
2022-08-05T00:18:37.941Z,101552.66
2022-08-05T00:21:06.452Z,101540.78
2022-08-05T00:23:46.489Z,101545.53
2022-08-05T00:26:20.592Z,101526.72
2022-08-05T00:28:47.377Z,101525.19
2022-08-05T00:31:16.445Z,101518.78
2022-08-05T00:34:54.892Z,101515.41
2022-08-05T00:37:09.839Z,101508.16
2022-08-05T00:39:44.021Z,101500.22
2022-08-05T00:42:11.515Z,101502.19
2022-08-05T00:44:58.474Z,101496.66
2022-08-05T00:47:26.557Z,101495.38
2022-08-05T00:50:13.449Z,101492.78
2022-08-05T00:52:40.426Z,101485.94
2022-08-05T00:55:07.589Z,101459.66
2022-08-05T00:57:55.568Z,101468.31
2022-08-05T01:00:21.950Z,101490.97
2022-08-05T01:02:52.617Z,101487.63
2022-08-05T01:05:20.159Z,101494.25
2022-08-05T01:08:41.334Z,101489.53
2022-08-05T01:10:56.556Z,101492.72
2022-08-05T01:13:57.752Z,101493.06
2022-08-05T01:16:26.300Z,101509.69
2022-08-05T01:18:58.132Z,101517.06
2022-08-05T01:21:55.851Z,101516.09
2022-08-05T01:24:39.263Z,101521.38
2022-08-05T01:27:17.741Z,101526.09
2022-08-05T01:29:50.242Z,101530.94
2022-08-05T01:32:22.460Z,101529.53
2022-08-05T01:34:58.690Z,101537.06
2022-08-05T01:37:45.990Z,101535.84
2022-08-05T01:40:17.923Z,101542.91
2022-08-05T01:42:46.539Z,101541.19
2022-08-05T01:45:16.466Z,101549.63
2022-08-05T01:47:46.503Z,101536.41
2022-08-05T01:50:28.596Z,101542.53
2022-08-05T01:53:01.607Z,101539.03
2022-08-05T01:55:32.549Z,101535.47
2022-08-05T01:58:10.383Z,101532.13
2022-08-05T02:00:45.448Z,101527.59
2022-08-05T02:03:28.917Z,101513.13
2022-08-05T02:06:03.364Z,101518.56
2022-08-05T02:08:32.644Z,101527.47
2022-08-05T02:11:07.804Z,101537.84
2022-08-05T02:13:54.098Z,101534.66
2022-08-05T02:16:39.203Z,101536.44
2022-08-05T02:19:17.692Z,101536.31
2022-08-05T02:21:52.870Z,101531.59
2022-08-05T02:24:23.543Z,101518.22
2022-08-05T02:26:58.763Z,101510.59
2022-08-05T02:30:00.015Z,101523.03
2022-08-05T02:32:23.934Z,101520.41
2022-08-05T02:35:13.745Z,101500.47
2022-08-05T02:37:47.802Z,101500.53
2022-08-05T02:40:23.051Z,101513.03
2022-08-05T02:42:54.194Z,101519.09
2022-08-05T02:45:23.861Z,101520.78
2022-08-05T02:48:11.441Z,101506.91
2022-08-05T02:50:45.986Z,101515.47
2022-08-05T02:53:16.143Z,101529.50
2022-08-05T02:56:00.027Z,101533.03
2022-08-05T02:58:30.231Z,101540.13
2022-08-05T03:01:00.870Z,101555.63
2022-08-05T03:03:33.823Z,101552.00
2022-08-05T03:06:57.253Z,101538.06
2022-08-05T03:09:05.170Z,101528.56
2022-08-05T03:11:57.851Z,101535.44
2022-08-05T03:14:22.216Z,101545.25
2022-08-05T03:16:49.270Z,101544.38
2022-08-05T03:19:34.610Z,101558.13
2022-08-05T03:22:05.125Z,101557.44
2022-08-05T03:24:46.951Z,101554.63
2022-08-05T03:27:14.436Z,101565.84
2022-08-05T03:29:44.864Z,101567.06
2022-08-05T03:32:31.053Z,101570.69
2022-08-05T03:34:59.752Z,101564.84
2022-08-05T03:37:27.791Z,101562.97
2022-08-05T03:40:01.811Z,101555.22
2022-08-05T03:42:32.426Z,101549.47
2022-08-05T03:45:22.041Z,101549.84
2022-08-05T03:47:51.223Z,101548.09
2022-08-05T03:50:18.475Z,101537.38
2022-08-05T03:55:00.349Z,101539.31
2022-08-05T03:56:09.979Z,101541.16
2022-08-05T03:58:46.796Z,101539.50
2022-08-05T04:01:16.395Z,101550.19
2022-08-05T04:04:05.377Z,101559.53
2022-08-05T04:06:37.691Z,101548.53
2022-08-05T04:09:06.255Z,101538.50
2022-08-05T04:11:47.602Z,101537.28
2022-08-05T04:14:19.588Z,101540.81
2022-08-05T04:16:58.597Z,101530.56
2022-08-05T04:19:25.765Z,101528.25
2022-08-05T04:22:09.390Z,101521.41
2022-08-05T04:24:52.658Z,101520.59
2022-08-05T04:27:33.240Z,101522.66
2022-08-05T04:30:08.638Z,101518.09
2022-08-05T04:32:36.575Z,101521.66
2022-08-05T04:35:05.053Z,101531.88
2022-08-05T04:38:02.089Z,101537.88
2022-08-05T04:40:20.117Z,101536.88
2022-08-05T04:42:46.952Z,101534.19
2022-08-05T04:45:22.965Z,101537.88
2022-08-05T04:48:18.488Z,101550.19
2022-08-05T04:51:01.666Z,101541.97
2022-08-05T04:53:33.556Z,101546.47
2022-08-05T04:56:33.808Z,101549.84
2022-08-05T04:58:50.136Z,101549.66
2022-08-05T05:01:33.730Z,101547.00
2022-08-05T05:04:04.885Z,101547.16
2022-08-05T05:06:36.178Z,101545.69
2022-08-05T05:09:08.144Z,101551.16
2022-08-05T05:11:52.846Z,101558.47
2022-08-05T05:14:27.574Z,101563.56
2022-08-05T05:17:03.274Z,101561.50
2022-08-05T05:19:37.207Z,101578.41
2022-08-05T05:22:23.943Z,101575.75
2022-08-05T05:24:59.792Z,101575.75
2022-08-05T05:27:44.458Z,101576.28
2022-08-05T05:30:30.616Z,101575.44
2022-08-05T05:33:08.791Z,101575.66
2022-08-05T05:35:47.455Z,101571.03
2022-08-05T05:38:22.671Z,101568.41
2022-08-05T05:40:56.061Z,101576.16
2022-08-05T05:43:57.396Z,101571.19
2022-08-05T05:46:17.855Z,101569.34
2022-08-05T05:48:46.099Z,101573.03
2022-08-05T05:51:25.536Z,101566.72
2022-08-05T05:53:58.770Z,101563.88
2022-08-05T05:56:32.675Z,101567.66
2022-08-05T05:59:05.717Z,101571.44
2022-08-05T06:01:36.951Z,101574.75
2022-08-05T06:04:07.560Z,101561.41
2022-08-05T06:06:35.996Z,101554.13
2022-08-05T06:09:05.389Z,101539.38
2022-08-05T06:11:33.198Z,101535.88
2022-08-05T06:14:00.978Z,101537.66
2022-08-05T06:16:36.740Z,101550.38
2022-08-05T06:19:07.436Z,101548.25
2022-08-05T06:21:38.811Z,101544.66
2022-08-05T06:24:09.963Z,101549.84
2022-08-05T06:26:52.314Z,101551.00
2022-08-05T06:29:25.443Z,101553.06
2022-08-05T06:32:20.950Z,101565.56
2022-08-05T06:34:48.536Z,101556.13
2022-08-05T06:37:56.842Z,101559.38
2022-08-05T06:40:08.020Z,101559.25
2022-08-05T06:42:34.901Z,101549.38
2022-08-05T06:45:05.588Z,101551.63
2022-08-05T06:48:36.498Z,101562.25
2022-08-05T06:50:24.956Z,101560.38
2022-08-05T06:53:03.748Z,101570.44
2022-08-05T06:55:38.606Z,101578.72
2022-08-05T06:58:19.953Z,101564.16
2022-08-05T07:01:01.165Z,101565.69
2022-08-05T07:03:32.747Z,101555.66
2022-08-05T07:06:06.187Z,101567.78
2022-08-05T07:08:47.892Z,101574.31
2022-08-05T07:11:21.892Z,101571.91
2022-08-05T07:14:20.276Z,101563.44
2022-08-05T07:18:08.485Z,101570.50
2022-08-05T07:22:35.619Z,101580.88
2022-08-05T07:25:22.662Z,101584.59
2022-08-05T07:27:58.720Z,101587.81
2022-08-05T07:30:38.922Z,101576.81
2022-08-05T07:33:16.479Z,101593.13
2022-08-05T07:36:04.715Z,101593.13
2022-08-05T07:38:42.660Z,101592.34
2022-08-05T07:42:07.927Z,101591.72
2022-08-05T07:44:06.634Z,101587.66
2022-08-05T07:46:41.486Z,101587.81
2022-08-05T07:49:15.257Z,101593.38
2022-08-05T07:51:53.828Z,101585.38
2022-08-05T07:54:30.315Z,101591.97
2022-08-05T07:57:13.831Z,101583.94
2022-08-05T07:59:46.957Z,101581.44
2022-08-05T08:02:17.626Z,101577.94
2022-08-05T08:04:49.448Z,101582.38
2022-08-05T08:07:22.863Z,101588.84
2022-08-05T08:09:52.717Z,101588.59
2022-08-05T08:12:37.082Z,101589.81
2022-08-05T08:15:15.233Z,101584.50
2022-08-05T08:17:52.713Z,101579.22
2022-08-05T08:20:59.896Z,101576.94
2022-08-05T08:24:00.044Z,101577.44
2022-08-05T08:25:59.691Z,101576.16
2022-08-05T08:28:35.557Z,101582.59
2022-08-05T08:31:07.001Z,101567.38
2022-08-05T08:33:37.464Z,101571.34
2022-08-05T08:36:38.778Z,101576.13
2022-08-05T08:38:55.320Z,101586.72
2022-08-05T08:41:26.270Z,101584.53
2022-08-05T08:45:23.562Z,101601.50
2022-08-05T08:46:59.017Z,101618.56
2022-08-05T08:50:22.803Z,101617.69
2022-08-05T08:52:23.258Z,101614.63
2022-08-05T08:54:54.591Z,101626.91
2022-08-05T08:57:25.482Z,101613.56
2022-08-05T09:00:10.071Z,101610.34
2022-08-05T09:02:37.443Z,101610.53
2022-08-05T09:05:16.936Z,101601.91
2022-08-05T09:07:57.682Z,101600.28
2022-08-05T09:10:29.712Z,101614.06
2022-08-05T09:12:57.263Z,101602.16
2022-08-05T09:15:26.757Z,101616.34
2022-08-05T09:17:57.534Z,101622.44
2022-08-05T09:20:37.635Z,101621.91
2022-08-05T09:23:18.794Z,101626.31
2022-08-05T09:26:01.457Z,101623.47
2022-08-05T09:28:33.455Z,101630.53
2022-08-05T09:31:22.299Z,101641.94
2022-08-05T09:33:56.188Z,101635.66
2022-08-05T09:36:27.711Z,101640.19
2022-08-05T09:39:17.952Z,101640.50
2022-08-05T09:42:00.234Z,101637.31
2022-08-05T09:44:36.557Z,101636.53
2022-08-05T09:47:15.839Z,101630.09
2022-08-05T09:50:00.599Z,101644.28
2022-08-05T09:52:34.864Z,101648.22
2022-08-05T09:55:55.147Z,101646.84
2022-08-05T09:57:54.831Z,101643.38
2022-08-05T10:00:26.025Z,101648.69
2022-08-05T10:02:54.856Z,101643.72
2022-08-05T10:05:27.926Z,101651.91
2022-08-05T10:08:34.770Z,101648.38
2022-08-05T10:10:54.077Z,101635.50
2022-08-05T10:13:47.586Z,101642.91
2022-08-05T10:16:37.929Z,101644.75
2022-08-05T10:19:23.668Z,101633.31
2022-08-05T10:21:59.378Z,101627.97
2022-08-05T10:24:27.381Z,101641.66
2022-08-05T10:27:00.652Z,101633.34
2022-08-05T10:30:07.164Z,101620.53
2022-08-05T10:32:52.338Z,101631.19
2022-08-05T10:35:04.265Z,101629.28
2022-08-05T10:37:40.461Z,101641.94
2022-08-05T10:40:22.508Z,101638.50
2022-08-05T10:43:04.893Z,101640.88
2022-08-05T10:45:40.117Z,101659.75
2022-08-05T10:48:36.082Z,101661.66
2022-08-05T10:51:22.313Z,101650.13
2022-08-05T10:53:55.854Z,101653.78
2022-08-05T10:56:28.236Z,101658.56
2022-08-05T10:58:55.759Z,101657.88
2022-08-05T11:01:54.609Z,101653.75
2022-08-05T11:04:28.055Z,101666.88
2022-08-05T11:06:58.138Z,101676.97
2022-08-05T11:09:32.405Z,101675.72
2022-08-05T11:12:24.501Z,101684.03
2022-08-05T11:15:19.363Z,101683.13
2022-08-05T11:18:09.459Z,101693.22
2022-08-05T11:20:46.154Z,101692.44
2022-08-05T11:24:05.470Z,101695.44
2022-08-05T11:26:32.463Z,101713.53
2022-08-05T11:29:12.052Z,101716.69
2022-08-05T11:31:56.271Z,101727.75
2022-08-05T11:34:37.706Z,101723.16
2022-08-05T11:38:14.298Z,101744.50
2022-08-05T11:40:00.858Z,101741.81
2022-08-05T11:42:37.929Z,101748.56
2022-08-05T11:45:14.194Z,101743.09
2022-08-05T11:47:54.428Z,101765.44
2022-08-05T11:50:22.339Z,101753.38
2022-08-05T11:52:52.089Z,101759.28
2022-08-05T11:55:21.416Z,101779.69
2022-08-05T11:58:09.811Z,101780.22
2022-08-05T12:00:39.089Z,101789.47
2022-08-05T12:03:28.625Z,101790.28
2022-08-05T12:06:01.010Z,101804.41
2022-08-05T12:08:27.911Z,101802.63
2022-08-05T12:10:59.476Z,101808.66
2022-08-05T12:13:49.585Z,101803.50
2022-08-05T12:16:25.662Z,101813.13
2022-08-05T12:18:55.274Z,101811.50
2022-08-05T12:21:33.994Z,101816.97
2022-08-05T12:24:06.919Z,101818.91
2022-08-05T12:26:39.536Z,101816.91
2022-08-05T12:29:17.917Z,101816.91
2022-08-05T12:31:53.628Z,101817.75
2022-08-05T12:34:24.037Z,101824.97
2022-08-05T12:36:53.750Z,101824.59
2022-08-05T12:39:22.102Z,101833.69
2022-08-05T12:41:50.710Z,101845.19
2022-08-05T12:44:33.141Z,101843.53
2022-08-05T12:47:02.067Z,101843.19
2022-08-05T12:50:03.538Z,101860.88
2022-08-05T12:52:38.891Z,101860.28
2022-08-05T12:55:18.137Z,101862.75
2022-08-05T12:58:52.493Z,101858.66
2022-08-05T13:02:00.627Z,101857.63
2022-08-05T13:03:32.367Z,101881.63
2022-08-05T13:06:01.561Z,101876.47
2022-08-05T13:08:32.358Z,101871.16
2022-08-05T13:11:04.391Z,101874.13
2022-08-05T13:14:05.886Z,101875.88
2022-08-05T13:16:20.239Z,101893.00
2022-08-05T13:18:52.218Z,101899.72
2022-08-05T13:21:22.363Z,101895.88
2022-08-05T13:23:55.051Z,101901.41
2022-08-05T13:26:29.963Z,101901.84
2022-08-05T13:28:58.981Z,101909.16
2022-08-05T13:32:02.872Z,101907.88
2022-08-05T13:34:22.240Z,101902.44
2022-08-05T13:36:53.232Z,101898.66
2022-08-05T13:40:13.917Z,101907.00
2022-08-05T13:42:07.672Z,101914.19
2022-08-05T13:44:46.301Z,101921.94
2022-08-05T13:47:35.200Z,101921.56
2022-08-05T13:50:08.130Z,101917.22
2022-08-05T13:52:38.270Z,101917.06
2022-08-05T13:55:07.614Z,101926.69
2022-08-05T13:57:50.620Z,101943.75
2022-08-05T14:00:26.968Z,101942.13
2022-08-05T14:02:56.994Z,101940.00
2022-08-05T14:05:48.437Z,101931.47
2022-08-05T14:08:21.048Z,101951.41
2022-08-05T14:10:54.421Z,101959.31
2022-08-05T14:13:34.935Z,101969.03
2022-08-05T14:16:08.566Z,101983.50
2022-08-05T14:18:38.099Z,101994.41
2022-08-05T14:22:07.715Z,101985.72
2022-08-05T14:23:51.808Z,101992.31
2022-08-05T14:26:36.775Z,101992.00
2022-08-05T14:29:06.101Z,101979.19
2022-08-05T14:32:02.558Z,101986.06
2022-08-05T14:34:35.276Z,101984.03
2022-08-05T14:37:04.738Z,101985.78
2022-08-05T14:39:49.664Z,101980.59
2022-08-05T14:42:21.294Z,101975.06
2022-08-05T14:44:56.697Z,101984.59
2022-08-05T14:48:02.588Z,101985.25
2022-08-05T14:50:17.767Z,101973.44
2022-08-05T14:52:53.200Z,101978.00
2022-08-05T14:55:24.619Z,101979.66
2022-08-05T14:57:56.171Z,101978.22
2022-08-05T15:00:27.691Z,101977.28
2022-08-05T15:02:55.624Z,101978.44
2022-08-05T15:05:29.896Z,101990.44
2022-08-05T15:08:06.402Z,101991.31
2022-08-05T15:10:43.396Z,102001.19
2022-08-05T15:13:13.365Z,101999.56
2022-08-05T15:15:55.018Z,102007.56
2022-08-05T15:18:23.429Z,102007.34
2022-08-05T15:20:50.936Z,102006.56
2022-08-05T15:23:17.870Z,102011.28
2022-08-05T15:25:52.646Z,102011.31
2022-08-05T15:28:27.376Z,102003.16
2022-08-05T15:30:55.283Z,102007.91
2022-08-05T15:34:05.813Z,102009.31
2022-08-05T15:36:16.814Z,102004.16
2022-08-05T15:38:50.799Z,102010.16
2022-08-05T15:41:57.669Z,102006.84
2022-08-05T15:44:24.585Z,102016.78
2022-08-05T15:46:52.921Z,102012.16
2022-08-05T15:49:41.845Z,102005.19
2022-08-05T15:52:29.012Z,102013.44
2022-08-05T15:54:56.593Z,102012.94
2022-08-05T15:57:23.681Z,102006.13
2022-08-05T15:59:55.202Z,102008.94
2022-08-05T16:02:25.520Z,102008.28
2022-08-05T16:04:55.349Z,102016.06
2022-08-05T16:07:22.917Z,102015.75
2022-08-05T16:09:50.039Z,102027.63
2022-08-05T16:12:17.864Z,102027.44
2022-08-05T16:14:46.946Z,102017.16
2022-08-05T16:17:14.093Z,102026.34
2022-08-05T16:20:05.130Z,102030.94
2022-08-05T16:22:33.878Z,102044.66
2022-08-05T16:25:05.270Z,102031.00
2022-08-05T16:28:00.152Z,102021.28
2022-08-05T16:30:26.606Z,102036.16
2022-08-05T16:32:55.623Z,102037.97
2022-08-05T16:35:27.825Z,102033.25
2022-08-05T16:38:15.258Z,102043.84
2022-08-05T16:40:48.044Z,102041.44
2022-08-05T16:43:25.156Z,102043.66
2022-08-05T16:46:04.728Z,102036.03
2022-08-05T16:48:39.762Z,102040.44
2022-08-05T16:51:09.120Z,102047.50
2022-08-05T16:54:06.202Z,102054.88
2022-08-05T16:56:33.802Z,102049.63
2022-08-05T16:59:07.595Z,102055.09
2022-08-05T17:01:52.694Z,102064.50
2022-08-05T17:04:21.416Z,102058.59
2022-08-05T17:06:53.540Z,102054.97
2022-08-05T17:09:20.857Z,102060.03
2022-08-05T17:11:50.835Z,102066.31
2022-08-05T17:14:22.382Z,102061.56
2022-08-05T17:17:02.597Z,102068.19
2022-08-05T17:19:29.700Z,102068.09
2022-08-05T17:21:57.414Z,102067.69
2022-08-05T17:24:35.034Z,102074.03
2022-08-05T17:27:06.275Z,102078.47
2022-08-05T17:29:40.938Z,102068.34
2022-08-05T17:32:11.819Z,102066.22
2022-08-05T17:34:44.107Z,102073.13
2022-08-05T17:37:39.867Z,102076.75
2022-08-05T17:40:00.264Z,102079.38
2022-08-05T17:42:31.968Z,102080.69
2022-08-05T17:45:18.160Z,102076.72
2022-08-05T17:47:53.887Z,102083.22
2022-08-05T17:50:28.299Z,102086.06
2022-08-05T17:53:01.357Z,102082.75
2022-08-05T17:55:38.201Z,102086.31
2022-08-05T17:58:13.414Z,102089.16
2022-08-05T18:00:45.323Z,102096.25
2022-08-05T18:06:05.892Z,102107.09
2022-08-05T18:08:38.563Z,102095.47
2022-08-05T18:11:07.637Z,102106.09
2022-08-05T18:13:44.185Z,102112.38
2022-08-05T18:16:13.629Z,102119.56
2022-08-05T18:18:41.484Z,102123.03
2022-08-05T18:21:21.349Z,102116.41
2022-08-05T18:23:53.657Z,102114.59
2022-08-05T18:26:29.202Z,102119.19
2022-08-05T18:28:57.787Z,102127.59
2022-08-05T18:31:25.775Z,102132.78
2022-08-05T18:34:00.279Z,102136.47
2022-08-05T18:36:28.124Z,102130.56
2022-08-05T18:38:55.807Z,102136.19
2022-08-05T18:41:57.704Z,102134.50
2022-08-05T18:44:10.819Z,102140.44
2022-08-05T18:46:41.074Z,102153.75
2022-08-05T18:49:30.576Z,102141.88
2022-08-05T18:52:32.743Z,102155.06
2022-08-05T18:55:00.963Z,102154.44
2022-08-05T18:57:27.985Z,102159.41
2022-08-05T19:00:20.496Z,102160.22
2022-08-05T19:02:48.383Z,102164.00
2022-08-05T19:06:12.227Z,102160.56
2022-08-05T19:08:07.086Z,102169.22
2022-08-05T19:10:40.742Z,102170.28
2022-08-05T19:13:07.637Z,102171.16
2022-08-05T19:15:58.927Z,102169.66
2022-08-05T19:18:26.497Z,102174.66
2022-08-05T19:20:54.556Z,102181.22
2022-08-05T19:24:06.563Z,102185.94
2022-08-05T19:26:09.719Z,102187.31
2022-08-05T19:28:43.223Z,102187.16
2022-08-05T19:31:18.000Z,102184.75
2022-08-05T19:33:56.559Z,102185.97
2022-08-05T19:36:25.381Z,102189.34
2022-08-05T19:38:54.796Z,102195.28
2022-08-05T19:41:58.107Z,102206.91
2022-08-05T19:44:14.122Z,102211.53
2022-08-05T19:46:43.653Z,102222.97
2022-08-05T19:49:16.388Z,102218.78
2022-08-05T19:52:09.021Z,102229.94
2022-08-05T19:54:34.276Z,102232.63
2022-08-05T19:57:06.294Z,102235.16
2022-08-05T19:59:55.137Z,102234.03
2022-08-05T20:02:22.577Z,102242.63
2022-08-05T20:04:50.068Z,102245.50
2022-08-05T20:07:46.744Z,102240.56
2022-08-05T20:10:13.945Z,102238.13
2022-08-05T20:12:46.226Z,102246.13
2022-08-05T20:15:48.366Z,102245.19
2022-08-05T20:18:10.936Z,102246.34
2022-08-05T20:20:56.763Z,102254.41
2022-08-05T20:23:40.306Z,102253.75
2022-08-05T20:26:16.391Z,102267.28
2022-08-05T20:28:46.063Z,102263.75
2022-08-05T20:31:14.086Z,102263.66
2022-08-05T20:33:44.832Z,102271.25
2022-08-05T20:36:12.297Z,102273.28
2022-08-05T20:38:53.430Z,102269.69
2022-08-05T20:41:23.973Z,102275.50
2022-08-05T20:43:59.876Z,102277.41
2022-08-05T20:46:30.114Z,102272.13
2022-08-05T20:48:57.044Z,102277.75
2022-08-05T20:51:23.846Z,102277.81
2022-08-05T20:53:56.977Z,102282.81
2022-08-05T20:56:31.867Z,102292.22
2022-08-05T20:59:14.245Z,102292.16
2022-08-05T21:01:46.049Z,102293.09
2022-08-05T21:04:14.000Z,102297.47
2022-08-05T21:06:45.331Z,102303.84
2022-08-05T21:09:14.546Z,102302.13
2022-08-05T21:12:10.320Z,102301.38
2022-08-05T21:14:34.592Z,102302.56
2022-08-05T21:17:06.032Z,102311.34
2022-08-05T21:19:47.312Z,102307.16
2022-08-05T21:22:18.582Z,102318.13
2022-08-05T21:24:51.668Z,102317.28
2022-08-05T21:27:18.882Z,102321.88
2022-08-05T21:29:48.483Z,102321.31
2022-08-05T21:32:20.155Z,102319.59
2022-08-05T21:34:56.065Z,102316.72
2022-08-05T21:37:35.061Z,102320.13
2022-08-05T21:40:13.187Z,102324.66
2022-08-05T21:42:44.030Z,102326.16
2022-08-05T21:45:24.767Z,102333.84
2022-08-05T21:47:56.192Z,102331.66
2022-08-05T21:50:25.977Z,102334.47
2022-08-05T21:52:53.385Z,102334.41
2022-08-05T21:56:01.418Z,102327.16
2022-08-05T21:58:07.966Z,102336.13
2022-08-05T22:00:38.698Z,102332.41
2022-08-05T22:03:07.592Z,102336.88
2022-08-05T22:05:48.719Z,102334.03
2022-08-05T22:08:22.150Z,102340.44
2022-08-05T22:10:51.560Z,102347.50
2022-08-05T22:14:19.360Z,102347.22
2022-08-05T22:16:15.725Z,102346.13
2022-08-05T22:18:52.840Z,102342.69
2022-08-05T22:21:20.097Z,102348.28
2022-08-05T22:24:12.900Z,102346.41
2022-08-05T22:26:58.839Z,102352.16
2022-08-05T22:29:30.489Z,102352.34
2022-08-05T22:32:03.220Z,102349.50
2022-08-05T22:34:31.745Z,102366.06
2022-08-05T22:36:59.222Z,102368.44
2022-08-05T22:39:31.104Z,102363.47
2022-08-05T22:42:09.591Z,102367.97
2022-08-05T22:44:38.848Z,102368.44
2022-08-05T22:47:06.606Z,102371.16
2022-08-05T22:50:21.040Z,102375.69
2022-08-05T22:52:30.392Z,102377.97
2022-08-05T22:54:59.860Z,102376.69
2022-08-05T22:57:26.983Z,102381.69
2022-08-05T23:00:01.128Z,102390.81
2022-08-05T23:02:33.183Z,102388.63
2022-08-05T23:05:01.933Z,102397.63
2022-08-05T23:07:32.644Z,102399.88
2022-08-05T23:10:10.857Z,102398.28
2022-08-05T23:12:37.746Z,102399.91
2022-08-05T23:15:08.674Z,102400.78
2022-08-05T23:17:37.975Z,102404.19
2022-08-05T23:20:24.367Z,102398.16
2022-08-05T23:22:55.653Z,102404.75
2022-08-05T23:25:53.689Z,102410.91
2022-08-05T23:28:11.953Z,102402.88
2022-08-05T23:30:43.808Z,102413.59
2022-08-05T23:33:22.245Z,102411.13
2022-08-05T23:35:56.224Z,102409.50
2022-08-05T23:38:24.522Z,102415.72
2022-08-05T23:40:52.797Z,102418.44
2022-08-05T23:43:25.369Z,102421.31
2022-08-05T23:46:19.749Z,102419.13
2022-08-05T23:49:00.973Z,102418.91
2022-08-05T23:51:55.353Z,102416.44
2022-08-05T23:54:30.463Z,102420.22
2022-08-05T23:57:03.994Z,102419.03
